sensor_id;sensor_type;location;lat;lon;timestamp;pressure;altitude;pressure_sealevel;temperature;humidity
9905;BME280;4991;43.566;27.820;2022-12-24T00:01:05;98615.72;;;1.93;100.00
9905;BME280;4991;43.566;27.820;2022-12-24T00:03:32;98621.41;;;1.96;100.00
9905;BME280;4991;43.566;27.820;2022-12-24T00:05:57;98622.94;;;2.14;100.00
9905;BME280;4991;43.566;27.820;2022-12-24T00:08:23;98629.75;;;2.26;100.00
9905;BME280;4991;43.566;27.820;2022-12-24T00:10:50;98625.09;;;2.43;100.00
9905;BME280;4991;43.566;27.820;2022-12-24T00:13:17;98623.28;;;2.54;100.00
9905;BME280;4991;43.566;27.820;2022-12-24T00:15:42;98624.97;;;2.60;100.00
9905;BME280;4991;43.566;27.820;2022-12-24T00:18:08;98617.59;;;2.50;100.00
9905;BME280;4991;43.566;27.820;2022-12-24T00:20:34;98628.97;;;2.57;100.00
9905;BME280;4991;43.566;27.820;2022-12-24T00:22:59;98623.28;;;2.54;100.00
9905;BME280;4991;43.566;27.820;2022-12-24T00:25:25;98621.38;;;2.49;100.00
9905;BME280;4991;43.566;27.820;2022-12-24T00:27:51;98621.75;;;2.31;100.00
9905;BME280;4991;43.566;27.820;2022-12-24T00:30:16;98622.53;;;2.27;100.00
9905;BME280;4991;43.566;27.820;2022-12-24T00:32:42;98620.84;;;2.21;100.00
9905;BME280;4991;43.566;27.820;2022-12-24T00:35:07;98618.84;;;2.38;100.00
9905;BME280;4991;43.566;27.820;2022-12-24T00:37:33;98604.44;;;2.49;100.00
9905;BME280;4991;43.566;27.820;2022-12-24T00:39:59;98607.47;;;2.57;100.00
9905;BME280;4991;43.566;27.820;2022-12-24T00:42:24;98605.09;;;2.66;100.00
9905;BME280;4991;43.566;27.820;2022-12-24T00:44:50;98598.16;;;2.70;100.00
9905;BME280;4991;43.566;27.820;2022-12-24T00:47:15;98607.63;;;2.78;100.00
9905;BME280;4991;43.566;27.820;2022-12-24T00:49:41;98605.84;;;2.56;100.00
9905;BME280;4991;43.566;27.820;2022-12-24T00:52:07;98614.09;;;2.45;100.00
9905;BME280;4991;43.566;27.820;2022-12-24T00:54:32;98610.78;;;2.38;100.00
9905;BME280;4991;43.566;27.820;2022-12-24T00:56:58;98607.28;;;2.37;100.00
9905;BME280;4991;43.566;27.820;2022-12-24T00:59:24;98608.22;;;2.21;100.00
9905;BME280;4991;43.566;27.820;2022-12-24T01:01:49;98616.03;;;2.23;100.00
9905;BME280;4991;43.566;27.820;2022-12-24T01:04:15;98620.00;;;2.15;100.00
9905;BME280;4991;43.566;27.820;2022-12-24T01:06:58;98614.72;;;2.25;100.00
9905;BME280;4991;43.566;27.820;2022-12-24T01:09:24;98602.69;;;2.33;100.00
9905;BME280;4991;43.566;27.820;2022-12-24T01:11:50;98610.31;;;2.46;100.00
9905;BME280;4991;43.566;27.820;2022-12-24T01:14:15;98600.13;;;2.48;100.00
9905;BME280;4991;43.566;27.820;2022-12-24T01:16:41;98595.53;;;2.43;100.00
9905;BME280;4991;43.566;27.820;2022-12-24T01:19:07;98600.31;;;2.36;100.00
9905;BME280;4991;43.566;27.820;2022-12-24T01:21:32;98597.81;;;2.30;100.00
9905;BME280;4991;43.566;27.820;2022-12-24T01:23:58;98596.13;;;2.24;100.00
9905;BME280;4991;43.566;27.820;2022-12-24T01:26:23;98588.28;;;2.17;100.00
9905;BME280;4991;43.566;27.820;2022-12-24T01:28:49;98585.72;;;2.01;100.00
9905;BME280;4991;43.566;27.820;2022-12-24T01:31:17;98585.44;;;1.97;100.00
9905;BME280;4991;43.566;27.820;2022-12-24T01:33:44;98590.00;;;1.97;100.00
9905;BME280;4991;43.566;27.820;2022-12-24T01:36:11;98587.88;;;1.99;100.00
9905;BME280;4991;43.566;27.820;2022-12-24T01:38:36;98594.03;;;1.99;100.00
9905;BME280;4991;43.566;27.820;2022-12-24T01:41:02;98590.28;;;2.00;100.00
9905;BME280;4991;43.566;27.820;2022-12-24T01:43:47;98591.84;;;1.96;100.00
9905;BME280;4991;43.566;27.820;2022-12-24T01:46:24;98593.13;;;1.89;100.00
9905;BME280;4991;43.566;27.820;2022-12-24T01:48:54;98590.13;;;1.85;100.00
9905;BME280;4991;43.566;27.820;2022-12-24T01:53:48;98577.50;;;1.86;100.00
9905;BME280;4991;43.566;27.820;2022-12-24T01:56:17;98584.97;;;1.79;100.00
9905;BME280;4991;43.566;27.820;2022-12-24T01:58:50;98587.59;;;1.74;100.00
9905;BME280;4991;43.566;27.820;2022-12-24T02:01:17;98585.97;;;1.73;100.00
9905;BME280;4991;43.566;27.820;2022-12-24T02:03:43;98580.84;;;1.71;100.00
9905;BME280;4991;43.566;27.820;2022-12-24T02:06:09;98580.84;;;1.71;100.00
9905;BME280;4991;43.566;27.820;2022-12-24T02:08:37;98578.69;;;1.68;100.00
9905;BME280;4991;43.566;27.820;2022-12-24T02:11:15;98579.44;;;1.64;100.00
9905;BME280;4991;43.566;27.820;2022-12-24T02:13:44;98575.63;;;1.60;100.00
9905;BME280;4991;43.566;27.820;2022-12-24T02:32:23;98581.81;;;1.39;100.00
9905;BME280;4991;43.566;27.820;2022-12-24T02:37:28;98574.22;;;1.30;100.00
9905;BME280;4991;43.566;27.820;2022-12-24T02:40:15;98582.25;;;1.30;100.00
9905;BME280;4991;43.566;27.820;2022-12-24T02:42:45;98583.31;;;1.29;100.00
9905;BME280;4991;43.566;27.820;2022-12-24T02:45:17;98587.56;;;1.25;100.00
9905;BME280;4991;43.566;27.820;2022-12-24T02:47:44;98586.06;;;1.34;100.00
9905;BME280;4991;43.566;27.820;2022-12-24T02:50:13;98589.34;;;1.63;100.00
9905;BME280;4991;43.566;27.820;2022-12-24T02:52:41;98579.91;;;1.82;100.00
9905;BME280;4991;43.566;27.820;2022-12-24T02:55:48;98585.97;;;1.99;100.00
9905;BME280;4991;43.566;27.820;2022-12-24T03:07:03;98587.63;;;2.32;100.00
9905;BME280;4991;43.566;27.820;2022-12-24T03:09:38;98592.38;;;2.20;100.00
9905;BME280;4991;43.566;27.820;2022-12-24T03:12:15;98589.53;;;2.05;100.00
9905;BME280;4991;43.566;27.820;2022-12-24T03:14:44;98594.03;;;1.99;100.00
9905;BME280;4991;43.566;27.820;2022-12-24T03:17:12;98591.53;;;1.93;100.00
9905;BME280;4991;43.566;27.820;2022-12-24T03:19:39;98582.88;;;1.86;100.00
9905;BME280;4991;43.566;27.820;2022-12-24T03:22:09;98589.25;;;1.80;100.00
9905;BME280;4991;43.566;27.820;2022-12-24T03:24:36;98586.00;;;1.78;100.00
9905;BME280;4991;43.566;27.820;2022-12-24T03:27:03;98585.63;;;1.91;100.00
9905;BME280;4991;43.566;27.820;2022-12-24T03:29:30;98594.34;;;2.03;100.00
9905;BME280;4991;43.566;27.820;2022-12-24T03:32:00;98590.97;;;2.17;100.00
9905;BME280;4991;43.566;27.820;2022-12-24T03:34:26;98591.38;;;2.31;100.00
9905;BME280;4991;43.566;27.820;2022-12-24T03:36:51;98583.44;;;2.46;100.00
9905;BME280;4991;43.566;27.820;2022-12-24T03:39:17;98575.19;;;2.57;100.00
9905;BME280;4991;43.566;27.820;2022-12-24T03:41:43;98581.19;;;2.64;100.00
9905;BME280;4991;43.566;27.820;2022-12-24T03:44:08;98578.75;;;2.63;100.00
9905;BME280;4991;43.566;27.820;2022-12-24T03:46:34;98574.47;;;2.67;100.00
9905;BME280;4991;43.566;27.820;2022-12-24T03:49:00;98579.03;;;2.67;100.00
9905;BME280;4991;43.566;27.820;2022-12-24T03:51:26;98580.91;;;2.66;100.00
9905;BME280;4991;43.566;27.820;2022-12-24T03:53:55;98580.91;;;2.66;100.00
9905;BME280;4991;43.566;27.820;2022-12-24T03:56:21;98585.81;;;2.74;100.00
9905;BME280;4991;43.566;27.820;2022-12-24T03:58:47;98579.91;;;2.77;100.00
9905;BME280;4991;43.566;27.820;2022-12-24T04:01:14;98583.16;;;2.79;100.00
9905;BME280;4991;43.566;27.820;2022-12-24T04:03:40;98578.38;;;2.86;100.00
9905;BME280;4991;43.566;27.820;2022-12-24T04:06:08;98582.16;;;2.90;100.00
9905;BME280;4991;43.566;27.820;2022-12-24T04:08:34;98592.41;;;2.93;100.00
9905;BME280;4991;43.566;27.820;2022-12-24T04:11:03;98586.22;;;2.98;100.00
9905;BME280;4991;43.566;27.820;2022-12-24T04:13:28;98587.84;;;2.99;100.00
9905;BME280;4991;43.566;27.820;2022-12-24T04:16:06;98584.38;;;2.98;100.00
9905;BME280;4991;43.566;27.820;2022-12-24T04:18:32;98583.53;;;2.98;100.00
9905;BME280;4991;43.566;27.820;2022-12-24T04:20:58;98588.41;;;3.01;100.00
9905;BME280;4991;43.566;27.820;2022-12-24T04:23:24;98583.56;;;3.03;100.00
9905;BME280;4991;43.566;27.820;2022-12-24T04:25:49;98578.50;;;3.06;100.00
9905;BME280;4991;43.566;27.820;2022-12-24T04:28:15;98582.22;;;3.05;100.00
9905;BME280;4991;43.566;27.820;2022-12-24T04:30:41;98584.69;;;3.07;100.00
9905;BME280;4991;43.566;27.820;2022-12-24T04:33:07;98580.56;;;2.94;100.00
9905;BME280;4991;43.566;27.820;2022-12-24T04:35:33;98580.81;;;2.93;100.00
9905;BME280;4991;43.566;27.820;2022-12-24T04:38:02;98582.16;;;2.95;100.00
9905;BME280;4991;43.566;27.820;2022-12-24T04:40:28;98586.78;;;3.00;100.00
9905;BME280;4991;43.566;27.820;2022-12-24T04:42:54;98574.94;;;3.01;100.00
9905;BME280;4991;43.566;27.820;2022-12-24T04:45:19;98585.47;;;3.07;100.00
9905;BME280;4991;43.566;27.820;2022-12-24T04:47:45;98578.75;;;3.05;100.00
9905;BME280;4991;43.566;27.820;2022-12-24T04:50:10;98589.25;;;3.06;100.00
9905;BME280;4991;43.566;27.820;2022-12-24T04:52:36;98595.69;;;3.05;100.00
9905;BME280;4991;43.566;27.820;2022-12-24T04:55:02;98594.88;;;3.00;100.00
9905;BME280;4991;43.566;27.820;2022-12-24T04:57:30;98599.38;;;2.94;100.00
9905;BME280;4991;43.566;27.820;2022-12-24T04:59:57;98604.47;;;2.91;100.00
9905;BME280;4991;43.566;27.820;2022-12-24T05:02:22;98589.19;;;2.96;100.00
9905;BME280;4991;43.566;27.820;2022-12-24T05:04:48;98591.13;;;3.06;100.00
9905;BME280;4991;43.566;27.820;2022-12-24T05:07:13;98580.66;;;3.09;100.00
9905;BME280;4991;43.566;27.820;2022-12-24T05:09:39;98587.94;;;3.14;100.00
9905;BME280;4991;43.566;27.820;2022-12-24T05:12:05;98579.59;;;3.15;100.00
9905;BME280;4991;43.566;27.820;2022-12-24T05:14:30;98586.66;;;3.21;100.00
9905;BME280;4991;43.566;27.820;2022-12-24T05:16:56;98590.41;;;3.25;100.00
9905;BME280;4991;43.566;27.820;2022-12-24T05:19:22;98604.13;;;3.24;100.00
9905;BME280;4991;43.566;27.820;2022-12-24T05:21:47;98596.63;;;3.26;100.00
9905;BME280;4991;43.566;27.820;2022-12-24T05:24:33;98596.34;;;3.27;100.00
9905;BME280;4991;43.566;27.820;2022-12-24T05:27:18;98592.31;;;3.25;100.00
9905;BME280;4991;43.566;27.820;2022-12-24T05:29:44;98602.81;;;3.26;100.00
9905;BME280;4991;43.566;27.820;2022-12-24T05:32:09;98603.91;;;3.35;100.00
9905;BME280;4991;43.566;27.820;2022-12-24T05:34:35;98597.75;;;3.35;100.00
9905;BME280;4991;43.566;27.820;2022-12-24T05:37:00;98607.16;;;3.37;100.00
9905;BME280;4991;43.566;27.820;2022-12-24T05:39:26;98609.00;;;3.32;100.00
9905;BME280;4991;43.566;27.820;2022-12-24T05:41:52;98607.66;;;3.29;100.00
9905;BME280;4991;43.566;27.820;2022-12-24T05:44:17;98607.94;;;3.28;100.00
9905;BME280;4991;43.566;27.820;2022-12-24T05:46:43;98608.16;;;3.21;100.00
9905;BME280;4991;43.566;27.820;2022-12-24T05:49:09;98611.38;;;3.18;100.00
9905;BME280;4991;43.566;27.820;2022-12-24T05:51:35;98604.69;;;3.26;100.00
9905;BME280;4991;43.566;27.820;2022-12-24T05:54:01;98608.47;;;3.25;100.00
9905;BME280;4991;43.566;27.820;2022-12-24T05:56:26;98604.66;;;3.21;100.00
9905;BME280;4991;43.566;27.820;2022-12-24T05:58:52;98605.50;;;3.26;100.00
9905;BME280;4991;43.566;27.820;2022-12-24T06:01:19;98599.63;;;3.34;100.00
9905;BME280;4991;43.566;27.820;2022-12-24T06:03:45;98605.28;;;3.38;100.00
9905;BME280;4991;43.566;27.820;2022-12-24T06:06:16;98608.28;;;3.41;100.00
9905;BME280;4991;43.566;27.820;2022-12-24T06:08:44;98606.09;;;3.43;100.00
9905;BME280;4991;43.566;27.820;2022-12-24T06:11:12;98614.47;;;3.47;100.00
9905;BME280;4991;43.566;27.820;2022-12-24T06:13:39;98606.69;;;3.50;100.00
9905;BME280;4991;43.566;27.820;2022-12-24T06:16:06;98604.25;;;3.49;100.00
9905;BME280;4991;43.566;27.820;2022-12-24T06:18:33;98605.38;;;3.53;100.00
9905;BME280;4991;43.566;27.820;2022-12-24T06:20:59;98614.50;;;3.52;100.00
9905;BME280;4991;43.566;27.820;2022-12-24T06:23:27;98608.88;;;3.58;100.00
9905;BME280;4991;43.566;27.820;2022-12-24T06:25:55;98611.88;;;3.67;100.00
9905;BME280;4991;43.566;27.820;2022-12-24T06:28:21;98608.91;;;3.68;100.00
9905;BME280;4991;43.566;27.820;2022-12-24T06:30:48;98609.72;;;3.69;100.00
9905;BME280;4991;43.566;27.820;2022-12-24T06:33:15;98611.63;;;3.73;100.00
9905;BME280;4991;43.566;27.820;2022-12-24T06:35:43;98617.56;;;3.80;100.00
9905;BME280;4991;43.566;27.820;2022-12-24T06:38:09;98618.66;;;3.79;100.00
9905;BME280;4991;43.566;27.820;2022-12-24T06:40:37;98620.81;;;3.77;100.00
9905;BME280;4991;43.566;27.820;2022-12-24T06:43:03;98618.16;;;3.92;100.00
9905;BME280;4991;43.566;27.820;2022-12-24T06:45:28;98617.63;;;4.01;100.00
9905;BME280;4991;43.566;27.820;2022-12-24T06:47:54;98626.78;;;4.05;100.00
9905;BME280;4991;43.566;27.820;2022-12-24T06:50:21;98629.78;;;4.08;100.00
9905;BME280;4991;43.566;27.820;2022-12-24T06:52:47;98629.78;;;4.13;100.00
9905;BME280;4991;43.566;27.820;2022-12-24T06:55:14;98635.72;;;4.20;100.00
9905;BME280;4991;43.566;27.820;2022-12-24T06:57:40;98636.56;;;4.26;100.00
9905;BME280;4991;43.566;27.820;2022-12-24T07:00:07;98636.84;;;4.29;100.00
9905;BME280;4991;43.566;27.820;2022-12-24T07:02:33;98641.44;;;4.39;100.00
9905;BME280;4991;43.566;27.820;2022-12-24T07:04:58;98644.13;;;4.44;100.00
9905;BME280;4991;43.566;27.820;2022-12-24T07:07:24;98639.03;;;4.57;100.00
9905;BME280;4991;43.566;27.820;2022-12-24T07:09:50;98634.16;;;4.64;100.00
9905;BME280;4991;43.566;27.820;2022-12-24T07:12:15;98631.47;;;4.69;100.00
9905;BME280;4991;43.566;27.820;2022-12-24T07:14:41;98634.97;;;4.70;100.00
9905;BME280;4991;43.566;27.820;2022-12-24T07:17:07;98633.09;;;4.75;100.00
9905;BME280;4991;43.566;27.820;2022-12-24T07:19:32;98636.34;;;4.77;100.00
9905;BME280;4991;43.566;27.820;2022-12-24T07:21:58;98638.50;;;4.80;100.00
9905;BME280;4991;43.566;27.820;2022-12-24T07:24:24;98633.38;;;4.89;100.00
9905;BME280;4991;43.566;27.820;2022-12-24T07:26:50;98640.38;;;4.90;100.00
9905;BME280;4991;43.566;27.820;2022-12-24T07:29:15;98639.28;;;4.86;100.00
9905;BME280;4991;43.566;27.820;2022-12-24T07:31:41;98636.84;;;4.89;100.00
9905;BME280;4991;43.566;27.820;2022-12-24T07:34:06;98633.88;;;5.01;100.00
9905;BME280;4991;43.566;27.820;2022-12-24T07:36:32;98634.97;;;5.10;100.00
9905;BME280;4991;43.566;27.820;2022-12-24T07:38:58;98636.56;;;5.16;100.00
9905;BME280;4991;43.566;27.820;2022-12-24T07:41:24;98640.59;;;5.28;100.00
9905;BME280;4991;43.566;27.820;2022-12-24T07:43:50;98637.88;;;5.39;100.00
9905;BME280;4991;43.566;27.820;2022-12-24T07:46:15;98640.00;;;5.47;100.00
9905;BME280;4991;43.566;27.820;2022-12-24T07:48:41;98632.44;;;5.54;100.00
9905;BME280;4991;43.566;27.820;2022-12-24T07:51:07;98640.75;;;5.62;100.00
9905;BME280;4991;43.566;27.820;2022-12-24T07:53:32;98631.03;;;5.66;100.00
9905;BME280;4991;43.566;27.820;2022-12-24T07:55:58;98635.56;;;5.86;100.00
9905;BME280;4991;43.566;27.820;2022-12-24T07:58:24;98635.78;;;5.99;100.00
9905;BME280;4991;43.566;27.820;2022-12-24T08:00:59;98640.25;;;6.19;100.00
9905;BME280;4991;43.566;27.820;2022-12-24T08:03:26;98631.03;;;6.30;100.00
9905;BME280;4991;43.566;27.820;2022-12-24T08:05:51;98627.94;;;6.46;100.00
9905;BME280;4991;43.566;27.820;2022-12-24T08:08:17;98633.28;;;6.57;100.00
9905;BME280;4991;43.566;27.820;2022-12-24T08:10:44;98625.34;;;6.65;100.00
9905;BME280;4991;43.566;27.820;2022-12-24T08:13:10;98619.81;;;6.80;100.00
9905;BME280;4991;43.566;27.820;2022-12-24T08:15:36;98619.69;;;6.95;100.00
9905;BME280;4991;43.566;27.820;2022-12-24T08:18:02;98622.59;;;7.04;100.00
9905;BME280;4991;43.566;27.820;2022-12-24T08:20:28;98621.44;;;7.10;100.00
9905;BME280;4991;43.566;27.820;2022-12-24T08:22:53;98612.94;;;7.21;100.00
9905;BME280;4991;43.566;27.820;2022-12-24T08:25:19;98621.00;;;7.26;100.00
9905;BME280;4991;43.566;27.820;2022-12-24T08:27:45;98623.00;;;7.44;100.00
9905;BME280;4991;43.566;27.820;2022-12-24T08:30:11;98621.78;;;7.55;100.00
9905;BME280;4991;43.566;27.820;2022-12-24T08:32:37;98622.50;;;7.66;100.00
9905;BME280;4991;43.566;27.820;2022-12-24T08:35:03;98620.75;;;7.75;100.00
9905;BME280;4991;43.566;27.820;2022-12-24T08:37:29;98611.66;;;7.84;100.00
9905;BME280;4991;43.566;27.820;2022-12-24T08:39:54;98618.06;;;7.94;100.00
9905;BME280;4991;43.566;27.820;2022-12-24T08:42:20;98619.09;;;7.98;100.00
9905;BME280;4991;43.566;27.820;2022-12-24T08:44:46;98618.16;;;8.07;100.00
9905;BME280;4991;43.566;27.820;2022-12-24T08:47:11;98609.16;;;8.12;100.00
9905;BME280;4991;43.566;27.820;2022-12-24T08:49:37;98612.84;;;8.21;100.00
9905;BME280;4991;43.566;27.820;2022-12-24T08:52:05;98602.44;;;8.28;100.00
9905;BME280;4991;43.566;27.820;2022-12-24T08:54:32;98609.41;;;8.34;100.00
9905;BME280;4991;43.566;27.820;2022-12-24T08:56:57;98606.25;;;8.45;100.00
9905;BME280;4991;43.566;27.820;2022-12-24T08:59:23;98609.38;;;8.52;100.00
9905;BME280;4991;43.566;27.820;2022-12-24T09:01:49;98605.56;;;8.72;100.00
9905;BME280;4991;43.566;27.820;2022-12-24T09:04:14;98593.56;;;9.64;100.00
9905;BME280;4991;43.566;27.820;2022-12-24T09:06:43;98600.78;;;11.11;100.00
9905;BME280;4991;43.566;27.820;2022-12-24T09:09:09;98595.59;;;12.02;100.00
9905;BME280;4991;43.566;27.820;2022-12-24T09:11:36;98585.69;;;12.57;100.00
9905;BME280;4991;43.566;27.820;2022-12-24T09:14:03;98578.97;;;13.43;100.00
9905;BME280;4991;43.566;27.820;2022-12-24T09:16:29;98567.13;;;13.97;100.00
9905;BME280;4991;43.566;27.820;2022-12-24T09:18:57;98558.25;;;14.00;100.00
9905;BME280;4991;43.566;27.820;2022-12-24T09:21:23;98557.16;;;14.84;100.00
9905;BME280;4991;43.566;27.820;2022-12-24T09:23:50;98565.66;;;15.47;100.00
9905;BME280;4991;43.566;27.820;2022-12-24T09:26:22;98558.69;;;15.62;100.00
9905;BME280;4991;43.566;27.820;2022-12-24T09:28:51;98550.34;;;15.71;100.00
9905;BME280;4991;43.566;27.820;2022-12-24T09:31:16;98549.91;;;17.12;100.00
9905;BME280;4991;43.566;27.820;2022-12-24T09:33:46;98535.06;;;17.75;100.00
9905;BME280;4991;43.566;27.820;2022-12-24T09:36:13;98543.63;;;17.27;100.00
9905;BME280;4991;43.566;27.820;2022-12-24T09:38:38;98556.41;;;16.92;100.00
9905;BME280;4991;43.566;27.820;2022-12-24T09:44:02;98555.09;;;15.37;100.00
9905;BME280;4991;43.566;27.820;2022-12-24T09:46:38;98556.63;;;14.70;100.00
9905;BME280;4991;43.566;27.820;2022-12-24T09:49:13;98548.41;;;14.29;100.00
9905;BME280;4991;43.566;27.820;2022-12-24T09:51:45;98552.06;;;13.83;100.00
9905;BME280;4991;43.566;27.820;2022-12-24T09:54:24;98556.84;;;14.15;100.00
9905;BME280;4991;43.566;27.820;2022-12-24T09:56:50;98555.03;;;14.69;100.00
9905;BME280;4991;43.566;27.820;2022-12-24T09:59:20;98552.03;;;14.62;100.00
9905;BME280;4991;43.566;27.820;2022-12-24T10:01:48;98546.00;;;13.98;100.00
9905;BME280;4991;43.566;27.820;2022-12-24T10:04:16;98553.56;;;14.30;100.00
9905;BME280;4991;43.566;27.820;2022-12-24T10:15:29;98540.25;;;13.62;100.00
9905;BME280;4991;43.566;27.820;2022-12-24T10:23:34;98539.91;;;13.34;100.00
9905;BME280;4991;43.566;27.820;2022-12-24T10:29:02;98533.78;;;13.37;100.00
9905;BME280;4991;43.566;27.820;2022-12-24T10:31:34;98528.47;;;13.41;100.00
9905;BME280;4991;43.566;27.820;2022-12-24T10:34:06;98533.25;;;13.06;100.00
9905;BME280;4991;43.566;27.820;2022-12-24T10:36:37;98535.97;;;12.97;100.00
9905;BME280;4991;43.566;27.820;2022-12-24T10:39:02;98538.59;;;12.77;100.00
9905;BME280;4991;43.566;27.820;2022-12-24T10:41:28;98540.38;;;12.73;100.00
9905;BME280;4991;43.566;27.820;2022-12-24T10:43:55;98532.50;;;12.71;100.00
9905;BME280;4991;43.566;27.820;2022-12-24T10:46:22;98537.16;;;12.71;100.00
9905;BME280;4991;43.566;27.820;2022-12-24T10:49:00;98535.19;;;12.88;100.00
9905;BME280;4991;43.566;27.820;2022-12-24T10:51:50;98525.63;;;13.29;100.00
9905;BME280;4991;43.566;27.820;2022-12-24T10:54:20;98526.38;;;13.38;100.00
9905;BME280;4991;43.566;27.820;2022-12-24T10:56:49;98547.59;;;13.03;100.00
9905;BME280;4991;43.566;27.820;2022-12-24T10:59:49;98542.25;;;12.98;100.00
9905;BME280;4991;43.566;27.820;2022-12-24T11:02:37;98544.50;;;12.96;100.00
9905;BME280;4991;43.566;27.820;2022-12-24T11:05:27;98535.84;;;13.03;100.00
9905;BME280;4991;43.566;27.820;2022-12-24T11:08:00;98547.91;;;12.93;100.00
9905;BME280;4991;43.566;27.820;2022-12-24T11:10:28;98538.59;;;12.68;100.00
9905;BME280;4991;43.566;27.820;2022-12-24T11:12:55;98532.34;;;12.51;100.00
9905;BME280;4991;43.566;27.820;2022-12-24T11:15:23;98535.50;;;12.87;100.00
9905;BME280;4991;43.566;27.820;2022-12-24T11:18:03;98532.13;;;13.07;100.00
9905;BME280;4991;43.566;27.820;2022-12-24T11:20:34;98537.91;;;12.97;100.00
9905;BME280;4991;43.566;27.820;2022-12-24T11:23:00;98531.47;;;13.10;100.00
9905;BME280;4991;43.566;27.820;2022-12-24T11:25:31;98532.06;;;13.24;100.00
9905;BME280;4991;43.566;27.820;2022-12-24T11:28:26;98528.41;;;13.58;100.00
9905;BME280;4991;43.566;27.820;2022-12-24T11:33:27;98525.00;;;14.10;100.00
9905;BME280;4991;43.566;27.820;2022-12-24T11:36:03;98527.13;;;14.34;100.00
9905;BME280;4991;43.566;27.820;2022-12-24T11:38:32;98521.38;;;14.27;100.00
9905;BME280;4991;43.566;27.820;2022-12-24T11:41:12;98523.22;;;14.35;100.00
9905;BME280;4991;43.566;27.820;2022-12-24T11:43:43;98525.16;;;14.55;100.00
9905;BME280;4991;43.566;27.820;2022-12-24T11:48:40;98520.63;;;14.92;100.00
9905;BME280;4991;43.566;27.820;2022-12-24T11:51:23;98518.44;;;14.85;100.00
9905;BME280;4991;43.566;27.820;2022-12-24T11:54:15;98513.63;;;14.94;100.00
9905;BME280;4991;43.566;27.820;2022-12-24T11:56:50;98514.72;;;15.26;100.00
9905;BME280;4991;43.566;27.820;2022-12-24T11:59:32;98511.81;;;15.67;100.00
9905;BME280;4991;43.566;27.820;2022-12-24T12:02:01;98519.59;;;15.77;100.00
9905;BME280;4991;43.566;27.820;2022-12-24T12:04:35;98508.50;;;15.62;100.00
9905;BME280;4991;43.566;27.820;2022-12-24T12:07:24;98510.75;;;15.23;100.00
9905;BME280;4991;43.566;27.820;2022-12-24T12:10:07;98503.72;;;15.14;100.00
9905;BME280;4991;43.566;27.820;2022-12-24T12:15:41;98505.03;;;14.51;100.00
9905;BME280;4991;43.566;27.820;2022-12-24T12:18:13;98510.78;;;14.38;100.00
9905;BME280;4991;43.566;27.820;2022-12-24T12:20:48;98506.13;;;14.38;100.00
9905;BME280;4991;43.566;27.820;2022-12-24T12:23:21;98520.16;;;14.57;100.00
9905;BME280;4991;43.566;27.820;2022-12-24T12:28:40;98515.91;;;14.92;100.00
9905;BME280;4991;43.566;27.820;2022-12-24T12:33:45;98506.44;;;15.71;100.00
9905;BME280;4991;43.566;27.820;2022-12-24T12:36:16;98511.47;;;15.69;100.00
9905;BME280;4991;43.566;27.820;2022-12-24T12:38:43;98508.72;;;15.69;100.00
9905;BME280;4991;43.566;27.820;2022-12-24T12:49:23;98526.63;;;13.53;100.00
9905;BME280;4991;43.566;27.820;2022-12-24T12:57:04;98521.19;;;13.07;100.00
9905;BME280;4991;43.566;27.820;2022-12-24T12:59:43;98530.84;;;12.96;100.00
9905;BME280;4991;43.566;27.820;2022-12-24T13:13:51;98524.41;;;12.92;100.00
9905;BME280;4991;43.566;27.820;2022-12-24T13:22:01;98513.84;;;13.66;100.00
9905;BME280;4991;43.566;27.820;2022-12-24T13:24:29;98517.53;;;13.70;100.00
9905;BME280;4991;43.566;27.820;2022-12-24T13:29:39;98510.84;;;14.08;100.00
9905;BME280;4991;43.566;27.820;2022-12-24T13:37:20;98517.13;;;13.59;100.00
9905;BME280;4991;43.566;27.820;2022-12-24T13:50:43;98539.97;;;13.00;100.00
9905;BME280;4991;43.566;27.820;2022-12-24T13:53:37;98538.56;;;12.85;100.00
9905;BME280;4991;43.566;27.820;2022-12-24T13:58:43;98538.94;;;12.50;100.00
9905;BME280;4991;43.566;27.820;2022-12-24T14:01:15;98539.44;;;12.35;100.00
9905;BME280;4991;43.566;27.820;2022-12-24T14:03:57;98538.59;;;12.17;100.00
9905;BME280;4991;43.566;27.820;2022-12-24T14:06:31;98556.44;;;12.15;100.00
9905;BME280;4991;43.566;27.820;2022-12-24T14:09:19;98553.69;;;12.06;100.00
9905;BME280;4991;43.566;27.820;2022-12-24T14:16:58;98557.66;;;11.75;100.00
9905;BME280;4991;43.566;27.820;2022-12-24T14:19:29;98545.59;;;11.67;100.00
9905;BME280;4991;43.566;27.820;2022-12-24T14:22:02;98559.69;;;11.69;100.00
9905;BME280;4991;43.566;27.820;2022-12-24T14:24:39;98552.72;;;11.54;100.00
9905;BME280;4991;43.566;27.820;2022-12-24T14:27:25;98554.34;;;11.55;100.00
9905;BME280;4991;43.566;27.820;2022-12-24T14:30:07;98560.22;;;11.40;100.00
9905;BME280;4991;43.566;27.820;2022-12-24T14:32:40;98557.97;;;11.34;100.00
9905;BME280;4991;43.566;27.820;2022-12-24T14:35:18;98568.69;;;11.30;100.00
9905;BME280;4991;43.566;27.820;2022-12-24T14:37:48;98563.94;;;11.14;100.00
9905;BME280;4991;43.566;27.820;2022-12-24T14:40:20;98569.34;;;11.05;100.00
9905;BME280;4991;43.566;27.820;2022-12-24T14:43:13;98575.56;;;10.97;100.00
9905;BME280;4991;43.566;27.820;2022-12-24T14:46:19;98570.00;;;10.80;100.00
9905;BME280;4991;43.566;27.820;2022-12-24T14:57:21;98575.38;;;10.50;100.00
9905;BME280;4991;43.566;27.820;2022-12-24T14:59:55;98580.13;;;10.44;100.00
9905;BME280;4991;43.566;27.820;2022-12-24T15:02:49;98578.16;;;10.36;100.00
9905;BME280;4991;43.566;27.820;2022-12-24T15:05:26;98575.91;;;10.38;100.00
9905;BME280;4991;43.566;27.820;2022-12-24T15:10:28;98587.16;;;10.23;100.00
9905;BME280;4991;43.566;27.820;2022-12-24T15:12:55;98597.16;;;10.14;100.00
9905;BME280;4991;43.566;27.820;2022-12-24T15:15:22;98583.94;;;10.07;100.00
9905;BME280;4991;43.566;27.820;2022-12-24T15:17:48;98602.47;;;10.05;100.00
9905;BME280;4991;43.566;27.820;2022-12-24T15:20:20;98601.19;;;10.03;100.00
9905;BME280;4991;43.566;27.820;2022-12-24T15:22:50;98596.31;;;10.00;100.00
9905;BME280;4991;43.566;27.820;2022-12-24T15:25:26;98593.59;;;10.00;100.00
9905;BME280;4991;43.566;27.820;2022-12-24T15:27:52;98589.19;;;10.04;100.00
9905;BME280;4991;43.566;27.820;2022-12-24T15:30:21;98599.66;;;9.97;100.00